sensor_id;sensor_type;location;lat;lon;timestamp;temperature;humidity
51613;DHT22;37694;51.748;14.326;2023-06-26T00:01:31;20.70;58.30
51613;DHT22;37694;51.748;14.326;2023-06-26T00:04:00;20.70;58.40
51613;DHT22;37694;51.748;14.326;2023-06-26T00:06:26;20.70;58.40
51613;DHT22;37694;51.748;14.326;2023-06-26T00:08:53;20.70;58.60
51613;DHT22;37694;51.748;14.326;2023-06-26T00:11:20;20.80;58.80
51613;DHT22;37694;51.748;14.326;2023-06-26T00:13:46;20.70;59.00
51613;DHT22;37694;51.748;14.326;2023-06-26T00:16:11;20.80;59.10
51613;DHT22;37694;51.748;14.326;2023-06-26T00:18:37;20.80;59.10
51613;DHT22;37694;51.748;14.326;2023-06-26T00:21:03;20.80;59.20
51613;DHT22;37694;51.748;14.326;2023-06-26T00:23:28;20.80;59.30
51613;DHT22;37694;51.748;14.326;2023-06-26T00:25:56;20.80;59.40
51613;DHT22;37694;51.748;14.326;2023-06-26T00:28:22;20.80;58.90
51613;DHT22;37694;51.748;14.326;2023-06-26T00:30:47;20.80;59.50
51613;DHT22;37694;51.748;14.326;2023-06-26T00:33:13;20.80;59.60
51613;DHT22;37694;51.748;14.326;2023-06-26T00:35:39;20.80;59.70
51613;DHT22;37694;51.748;14.326;2023-06-26T00:38:04;20.80;59.70
51613;DHT22;37694;51.748;14.326;2023-06-26T00:40:30;20.80;59.80
51613;DHT22;37694;51.748;14.326;2023-06-26T00:42:56;20.90;59.90
51613;DHT22;37694;51.748;14.326;2023-06-26T00:45:21;20.80;59.90
51613;DHT22;37694;51.748;14.326;2023-06-26T00:47:47;20.90;60.10
51613;DHT22;37694;51.748;14.326;2023-06-26T00:50:13;20.80;60.00
51613;DHT22;37694;51.748;14.326;2023-06-26T00:52:41;20.80;60.10
51613;DHT22;37694;51.748;14.326;2023-06-26T00:55:07;20.90;60.20
51613;DHT22;37694;51.748;14.326;2023-06-26T00:57:33;20.90;60.10
51613;DHT22;37694;51.748;14.326;2023-06-26T01:00:00;20.90;60.10
51613;DHT22;37694;51.748;14.326;2023-06-26T01:02:26;20.80;60.10
51613;DHT22;37694;51.748;14.326;2023-06-26T01:05:02;20.80;60.30
51613;DHT22;37694;51.748;14.326;2023-06-26T01:07:35;20.90;60.40
51613;DHT22;37694;51.748;14.326;2023-06-26T01:10:03;20.90;60.40
51613;DHT22;37694;51.748;14.326;2023-06-26T01:12:31;20.90;60.50
51613;DHT22;37694;51.748;14.326;2023-06-26T01:14:58;20.90;60.50
51613;DHT22;37694;51.748;14.326;2023-06-26T01:17:24;20.90;60.50
51613;DHT22;37694;51.748;14.326;2023-06-26T01:19:50;20.90;60.50
51613;DHT22;37694;51.748;14.326;2023-06-26T01:22:31;20.90;60.50
51613;DHT22;37694;51.748;14.326;2023-06-26T01:25:22;20.90;60.70
51613;DHT22;37694;51.748;14.326;2023-06-26T01:27:52;20.90;60.20
51613;DHT22;37694;51.748;14.326;2023-06-26T01:30:19;20.80;61.00
51613;DHT22;37694;51.748;14.326;2023-06-26T01:32:46;20.80;61.00
51613;DHT22;37694;51.748;14.326;2023-06-26T01:35:12;20.90;61.10
51613;DHT22;37694;51.748;14.326;2023-06-26T01:37:38;20.80;61.20
51613;DHT22;37694;51.748;14.326;2023-06-26T01:40:04;20.80;61.20
51613;DHT22;37694;51.748;14.326;2023-06-26T01:42:32;20.90;61.20
51613;DHT22;37694;51.748;14.326;2023-06-26T01:45:02;20.90;61.30
51613;DHT22;37694;51.748;14.326;2023-06-26T01:47:33;20.90;61.40
51613;DHT22;37694;51.748;14.326;2023-06-26T01:50:11;20.90;61.50
51613;DHT22;37694;51.748;14.326;2023-06-26T01:55:15;20.90;61.50
51613;DHT22;37694;51.748;14.326;2023-06-26T01:57:42;20.90;61.00
51613;DHT22;37694;51.748;14.326;2023-06-26T02:00:10;20.80;61.60
51613;DHT22;37694;51.748;14.326;2023-06-26T02:02:36;20.90;61.60
51613;DHT22;37694;51.748;14.326;2023-06-26T02:05:02;20.90;61.70
51613;DHT22;37694;51.748;14.326;2023-06-26T02:07:28;20.90;61.50
51613;DHT22;37694;51.748;14.326;2023-06-26T02:09:54;20.90;61.40
51613;DHT22;37694;51.748;14.326;2023-06-26T02:12:20;20.90;61.40
51613;DHT22;37694;51.748;14.326;2023-06-26T02:14:46;20.90;61.50
51613;DHT22;37694;51.748;14.326;2023-06-26T02:17:11;20.90;61.50
51613;DHT22;37694;51.748;14.326;2023-06-26T02:19:37;20.90;61.50
51613;DHT22;37694;51.748;14.326;2023-06-26T02:22:10;20.90;61.60
51613;DHT22;37694;51.748;14.326;2023-06-26T02:24:36;20.80;61.60
51613;DHT22;37694;51.748;14.326;2023-06-26T02:27:01;20.90;61.70
51613;DHT22;37694;51.748;14.326;2023-06-26T02:29:27;20.80;61.80
51613;DHT22;37694;51.748;14.326;2023-06-26T02:31:53;20.90;61.90
51613;DHT22;37694;51.748;14.326;2023-06-26T02:34:19;20.90;61.90
51613;DHT22;37694;51.748;14.326;2023-06-26T02:36:44;20.90;61.90
51613;DHT22;37694;51.748;14.326;2023-06-26T02:39:10;20.90;61.80
51613;DHT22;37694;51.748;14.326;2023-06-26T02:41:36;20.90;61.80
51613;DHT22;37694;51.748;14.326;2023-06-26T02:44:02;20.90;61.80
51613;DHT22;37694;51.748;14.326;2023-06-26T02:46:27;20.90;61.70
51613;DHT22;37694;51.748;14.326;2023-06-26T02:48:53;20.90;61.80
51613;DHT22;37694;51.748;14.326;2023-06-26T02:51:19;20.90;61.80
51613;DHT22;37694;51.748;14.326;2023-06-26T02:53:44;20.90;61.80
51613;DHT22;37694;51.748;14.326;2023-06-26T02:56:10;20.90;61.90
51613;DHT22;37694;51.748;14.326;2023-06-26T02:58:35;20.90;61.90
51613;DHT22;37694;51.748;14.326;2023-06-26T03:01:01;20.80;62.10
51613;DHT22;37694;51.748;14.326;2023-06-26T03:03:27;20.80;62.00
51613;DHT22;37694;51.748;14.326;2023-06-26T03:05:52;20.90;61.90
51613;DHT22;37694;51.748;14.326;2023-06-26T03:08:18;20.90;61.90
51613;DHT22;37694;51.748;14.326;2023-06-26T03:10:43;20.90;61.90
51613;DHT22;37694;51.748;14.326;2023-06-26T03:13:09;20.90;62.00
51613;DHT22;37694;51.748;14.326;2023-06-26T03:15:35;20.80;62.00
51613;DHT22;37694;51.748;14.326;2023-06-26T03:18:01;20.80;62.10
51613;DHT22;37694;51.748;14.326;2023-06-26T03:20:26;20.80;62.20
51613;DHT22;37694;51.748;14.326;2023-06-26T03:22:52;20.80;62.10
51613;DHT22;37694;51.748;14.326;2023-06-26T03:25:18;20.80;62.10
51613;DHT22;37694;51.748;14.326;2023-06-26T03:27:44;20.80;61.80
51613;DHT22;37694;51.748;14.326;2023-06-26T03:30:10;20.80;62.30
51613;DHT22;37694;51.748;14.326;2023-06-26T03:32:36;20.80;62.30
51613;DHT22;37694;51.748;14.326;2023-06-26T03:35:02;20.80;62.20
51613;DHT22;37694;51.748;14.326;2023-06-26T03:37:28;20.80;62.20
51613;DHT22;37694;51.748;14.326;2023-06-26T03:39:54;20.80;62.20
51613;DHT22;37694;51.748;14.326;2023-06-26T03:42:20;20.80;62.20
51613;DHT22;37694;51.748;14.326;2023-06-26T03:44:45;20.80;62.20
51613;DHT22;37694;51.748;14.326;2023-06-26T03:47:11;20.80;62.20
51613;DHT22;37694;51.748;14.326;2023-06-26T03:49:37;20.80;62.20
51613;DHT22;37694;51.748;14.326;2023-06-26T03:52:02;20.80;62.10
51613;DHT22;37694;51.748;14.326;2023-06-26T03:54:28;20.90;62.10
51613;DHT22;37694;51.748;14.326;2023-06-26T03:56:54;20.80;61.80
51613;DHT22;37694;51.748;14.326;2023-06-26T03:59:19;20.80;62.30
51613;DHT22;37694;51.748;14.326;2023-06-26T04:01:45;20.80;62.50
51613;DHT22;37694;51.748;14.326;2023-06-26T04:04:10;20.80;62.60
51613;DHT22;37694;51.748;14.326;2023-06-26T04:06:36;20.90;62.40
51613;DHT22;37694;51.748;14.326;2023-06-26T04:09:02;20.90;62.40
51613;DHT22;37694;51.748;14.326;2023-06-26T04:11:28;20.90;62.40
51613;DHT22;37694;51.748;14.326;2023-06-26T04:13:53;20.90;62.40
51613;DHT22;37694;51.748;14.326;2023-06-26T04:16:20;20.80;62.40
51613;DHT22;37694;51.748;14.326;2023-06-26T04:18:46;20.90;62.50
51613;DHT22;37694;51.748;14.326;2023-06-26T04:21:13;20.80;62.50
51613;DHT22;37694;51.748;14.326;2023-06-26T04:23:40;20.80;62.50
51613;DHT22;37694;51.748;14.326;2023-06-26T04:26:06;20.80;62.40
51613;DHT22;37694;51.748;14.326;2023-06-26T04:28:33;20.80;62.50
51613;DHT22;37694;51.748;14.326;2023-06-26T04:30:59;20.80;62.60
51613;DHT22;37694;51.748;14.326;2023-06-26T04:33:26;20.80;62.60
51613;DHT22;37694;51.748;14.326;2023-06-26T04:35:52;20.80;62.80
51613;DHT22;37694;51.748;14.326;2023-06-26T04:38:18;20.80;62.80
51613;DHT22;37694;51.748;14.326;2023-06-26T04:40:44;20.80;62.80
51613;DHT22;37694;51.748;14.326;2023-06-26T04:43:10;21.00;62.80
51613;DHT22;37694;51.748;14.326;2023-06-26T04:45:36;21.20;62.50
51613;DHT22;37694;51.748;14.326;2023-06-26T04:48:02;21.50;61.90
51613;DHT22;37694;51.748;14.326;2023-06-26T04:50:30;21.70;61.10
51613;DHT22;37694;51.748;14.326;2023-06-26T04:52:55;21.90;60.70
51613;DHT22;37694;51.748;14.326;2023-06-26T04:55:23;22.00;60.40
51613;DHT22;37694;51.748;14.326;2023-06-26T04:57:49;22.10;60.10
51613;DHT22;37694;51.748;14.326;2023-06-26T05:00:15;22.20;60.00
51613;DHT22;37694;51.748;14.326;2023-06-26T05:02:41;22.30;60.00
51613;DHT22;37694;51.748;14.326;2023-06-26T05:05:07;22.40;59.70
51613;DHT22;37694;51.748;14.326;2023-06-26T05:07:33;22.50;59.50
51613;DHT22;37694;51.748;14.326;2023-06-26T05:09:58;22.50;59.50
51613;DHT22;37694;51.748;14.326;2023-06-26T05:12:24;22.60;59.30
51613;DHT22;37694;51.748;14.326;2023-06-26T05:14:50;22.70;59.30
51613;DHT22;37694;51.748;14.326;2023-06-26T05:17:15;22.70;59.20
51613;DHT22;37694;51.748;14.326;2023-06-26T05:19:41;22.80;59.40
51613;DHT22;37694;51.748;14.326;2023-06-26T05:22:07;22.90;59.60
51613;DHT22;37694;51.748;14.326;2023-06-26T05:24:37;22.90;59.40
51613;DHT22;37694;51.748;14.326;2023-06-26T05:27:04;23.00;59.60
51613;DHT22;37694;51.748;14.326;2023-06-26T05:29:33;23.10;59.80
51613;DHT22;37694;51.748;14.326;2023-06-26T05:31:59;23.10;59.80
51613;DHT22;37694;51.748;14.326;2023-06-26T05:34:26;23.20;60.70
51613;DHT22;37694;51.748;14.326;2023-06-26T05:36:58;23.20;59.70
51613;DHT22;37694;51.748;14.326;2023-06-26T05:39:25;23.30;59.70
51613;DHT22;37694;51.748;14.326;2023-06-26T05:41:51;23.30;59.70
51613;DHT22;37694;51.748;14.326;2023-06-26T05:44:17;23.40;59.70
51613;DHT22;37694;51.748;14.326;2023-06-26T05:46:43;23.40;59.70
51613;DHT22;37694;51.748;14.326;2023-06-26T05:49:09;23.50;59.60
51613;DHT22;37694;51.748;14.326;2023-06-26T05:51:35;23.50;59.60
51613;DHT22;37694;51.748;14.326;2023-06-26T05:54:01;23.60;59.70
51613;DHT22;37694;51.748;14.326;2023-06-26T05:56:28;23.60;59.80
51613;DHT22;37694;51.748;14.326;2023-06-26T05:58:54;23.60;59.90
51613;DHT22;37694;51.748;14.326;2023-06-26T06:01:20;23.60;59.90
51613;DHT22;37694;51.748;14.326;2023-06-26T06:03:45;23.70;59.70
51613;DHT22;37694;51.748;14.326;2023-06-26T06:06:11;23.70;59.70
51613;DHT22;37694;51.748;14.326;2023-06-26T06:08:37;23.70;59.90
51613;DHT22;37694;51.748;14.326;2023-06-26T06:11:02;23.80;59.90
51613;DHT22;37694;51.748;14.326;2023-06-26T06:13:28;23.80;59.80
51613;DHT22;37694;51.748;14.326;2023-06-26T06:15:54;23.90;59.60
51613;DHT22;37694;51.748;14.326;2023-06-26T06:18:20;23.90;59.50
51613;DHT22;37694;51.748;14.326;2023-06-26T06:20:46;23.90;59.20
51613;DHT22;37694;51.748;14.326;2023-06-26T06:23:12;23.90;59.20
51613;DHT22;37694;51.748;14.326;2023-06-26T06:25:38;23.90;58.90
51613;DHT22;37694;51.748;14.326;2023-06-26T06:28:04;24.00;58.80
51613;DHT22;37694;51.748;14.326;2023-06-26T06:30:30;23.90;58.60
51613;DHT22;37694;51.748;14.326;2023-06-26T06:32:56;24.00;58.50
51613;DHT22;37694;51.748;14.326;2023-06-26T06:35:21;24.00;58.40
51613;DHT22;37694;51.748;14.326;2023-06-26T06:37:47;24.00;58.20
51613;DHT22;37694;51.748;14.326;2023-06-26T06:40:15;24.00;58.10
51613;DHT22;37694;51.748;14.326;2023-06-26T06:42:40;24.10;58.90
51613;DHT22;37694;51.748;14.326;2023-06-26T06:45:06;24.10;58.00
51613;DHT22;37694;51.748;14.326;2023-06-26T06:47:33;24.10;57.90
51613;DHT22;37694;51.748;14.326;2023-06-26T06:49:59;24.10;57.70
51613;DHT22;37694;51.748;14.326;2023-06-26T06:52:27;24.20;57.60
51613;DHT22;37694;51.748;14.326;2023-06-26T06:54:57;24.20;57.50
51613;DHT22;37694;51.748;14.326;2023-06-26T06:57:30;24.20;57.30
51613;DHT22;37694;51.748;14.326;2023-06-26T06:59:56;24.30;57.20
51613;DHT22;37694;51.748;14.326;2023-06-26T07:02:22;24.30;57.10
51613;DHT22;37694;51.748;14.326;2023-06-26T07:04:48;24.30;57.00
51613;DHT22;37694;51.748;14.326;2023-06-26T07:07:13;24.30;56.90
51613;DHT22;37694;51.748;14.326;2023-06-26T07:09:39;24.40;56.90
51613;DHT22;37694;51.748;14.326;2023-06-26T07:12:05;24.40;56.80
51613;DHT22;37694;51.748;14.326;2023-06-26T07:14:31;24.40;56.70
51613;DHT22;37694;51.748;14.326;2023-06-26T07:16:57;24.40;56.60
51613;DHT22;37694;51.748;14.326;2023-06-26T07:19:22;24.50;56.50
51613;DHT22;37694;51.748;14.326;2023-06-26T07:21:48;24.50;56.40
51613;DHT22;37694;51.748;14.326;2023-06-26T07:24:13;24.50;56.30
51613;DHT22;37694;51.748;14.326;2023-06-26T07:26:39;24.50;56.30
51613;DHT22;37694;51.748;14.326;2023-06-26T07:29:05;24.50;56.10
51613;DHT22;37694;51.748;14.326;2023-06-26T07:31:30;24.60;56.20
51613;DHT22;37694;51.748;14.326;2023-06-26T07:33:56;24.60;56.00
51613;DHT22;37694;51.748;14.326;2023-06-26T07:36:22;24.60;56.00
51613;DHT22;37694;51.748;14.326;2023-06-26T07:38:48;24.70;55.90
51613;DHT22;37694;51.748;14.326;2023-06-26T07:41:13;24.70;55.80
51613;DHT22;37694;51.748;14.326;2023-06-26T07:43:39;24.70;55.90
51613;DHT22;37694;51.748;14.326;2023-06-26T07:46:05;24.70;55.70
51613;DHT22;37694;51.748;14.326;2023-06-26T07:48:30;24.70;55.50
51613;DHT22;37694;51.748;14.326;2023-06-26T07:50:56;24.80;55.50
51613;DHT22;37694;51.748;14.326;2023-06-26T07:53:22;24.80;55.30
51613;DHT22;37694;51.748;14.326;2023-06-26T07:55:47;24.80;55.20
51613;DHT22;37694;51.748;14.326;2023-06-26T07:58:13;24.80;55.10
51613;DHT22;37694;51.748;14.326;2023-06-26T08:00:39;24.90;55.10
51613;DHT22;37694;51.748;14.326;2023-06-26T08:03:05;24.90;54.90
51613;DHT22;37694;51.748;14.326;2023-06-26T08:05:31;24.90;54.80
51613;DHT22;37694;51.748;14.326;2023-06-26T08:07:56;24.90;54.80
51613;DHT22;37694;51.748;14.326;2023-06-26T08:10:22;24.90;54.60
51613;DHT22;37694;51.748;14.326;2023-06-26T08:12:48;25.00;54.50
51613;DHT22;37694;51.748;14.326;2023-06-26T08:15:16;25.00;54.60
51613;DHT22;37694;51.748;14.326;2023-06-26T08:17:41;25.10;54.40
51613;DHT22;37694;51.748;14.326;2023-06-26T08:20:07;25.10;54.40
51613;DHT22;37694;51.748;14.326;2023-06-26T08:22:33;25.10;54.30
51613;DHT22;37694;51.748;14.326;2023-06-26T08:24:59;25.20;54.30
51613;DHT22;37694;51.748;14.326;2023-06-26T08:27:25;25.20;54.20
51613;DHT22;37694;51.748;14.326;2023-06-26T08:29:51;25.20;54.10
51613;DHT22;37694;51.748;14.326;2023-06-26T08:32:17;25.20;54.00
51613;DHT22;37694;51.748;14.326;2023-06-26T08:34:42;25.20;54.00
51613;DHT22;37694;51.748;14.326;2023-06-26T08:37:08;25.30;54.00
51613;DHT22;37694;51.748;14.326;2023-06-26T08:39:36;25.30;53.90
51613;DHT22;37694;51.748;14.326;2023-06-26T08:42:02;25.30;53.80
51613;DHT22;37694;51.748;14.326;2023-06-26T08:44:28;25.30;53.70
51613;DHT22;37694;51.748;14.326;2023-06-26T08:46:53;25.40;53.70
51613;DHT22;37694;51.748;14.326;2023-06-26T08:52:31;25.40;53.50
51613;DHT22;37694;51.748;14.326;2023-06-26T08:54:59;25.50;53.40
51613;DHT22;37694;51.748;14.326;2023-06-26T08:57:28;25.50;53.50
51613;DHT22;37694;51.748;14.326;2023-06-26T08:59:56;25.50;53.40
51613;DHT22;37694;51.748;14.326;2023-06-26T09:02:22;25.50;53.30
51613;DHT22;37694;51.748;14.326;2023-06-26T09:04:48;25.50;53.30
51613;DHT22;37694;51.748;14.326;2023-06-26T09:07:15;25.50;53.10
51613;DHT22;37694;51.748;14.326;2023-06-26T09:09:40;25.60;53.10
51613;DHT22;37694;51.748;14.326;2023-06-26T09:12:06;25.60;53.10
51613;DHT22;37694;51.748;14.326;2023-06-26T09:14:34;25.70;53.10
51613;DHT22;37694;51.748;14.326;2023-06-26T09:16:59;25.70;53.00
51613;DHT22;37694;51.748;14.326;2023-06-26T09:19:25;25.70;53.00
51613;DHT22;37694;51.748;14.326;2023-06-26T09:21:52;25.70;52.90
51613;DHT22;37694;51.748;14.326;2023-06-26T09:24:17;25.70;52.80
51613;DHT22;37694;51.748;14.326;2023-06-26T09:26:43;25.80;52.80
51613;DHT22;37694;51.748;14.326;2023-06-26T09:29:09;25.80;52.70
51613;DHT22;37694;51.748;14.326;2023-06-26T09:31:39;25.80;52.70
51613;DHT22;37694;51.748;14.326;2023-06-26T09:34:05;25.80;52.70
51613;DHT22;37694;51.748;14.326;2023-06-26T09:36:32;25.80;52.60
51613;DHT22;37694;51.748;14.326;2023-06-26T09:39:02;25.90;52.60
51613;DHT22;37694;51.748;14.326;2023-06-26T09:41:28;25.90;52.50
51613;DHT22;37694;51.748;14.326;2023-06-26T09:43:54;26.00;52.50
51613;DHT22;37694;51.748;14.326;2023-06-26T09:46:27;26.00;52.40
51613;DHT22;37694;51.748;14.326;2023-06-26T09:49:13;26.00;52.30
51613;DHT22;37694;51.748;14.326;2023-06-26T09:51:41;26.00;52.20
51613;DHT22;37694;51.748;14.326;2023-06-26T09:54:08;26.00;52.30
51613;DHT22;37694;51.748;14.326;2023-06-26T09:56:35;26.10;52.30
51613;DHT22;37694;51.748;14.326;2023-06-26T09:59:03;26.10;52.30
51613;DHT22;37694;51.748;14.326;2023-06-26T10:01:30;26.10;52.20
51613;DHT22;37694;51.748;14.326;2023-06-26T10:03:56;25.80;50.40
51613;DHT22;37694;51.748;14.326;2023-06-26T10:06:33;25.10;50.60
51613;DHT22;37694;51.748;14.326;2023-06-26T10:09:00;24.50;50.10
51613;DHT22;37694;51.748;14.326;2023-06-26T10:11:53;24.10;50.00
51613;DHT22;37694;51.748;14.326;2023-06-26T10:14:21;23.70;49.10
51613;DHT22;37694;51.748;14.326;2023-06-26T10:16:49;23.50;49.40
51613;DHT22;37694;51.748;14.326;2023-06-26T10:19:18;23.30;48.80
51613;DHT22;37694;51.748;14.326;2023-06-26T10:21:50;23.30;48.60
51613;DHT22;37694;51.748;14.326;2023-06-26T10:24:17;23.10;48.60
51613;DHT22;37694;51.748;14.326;2023-06-26T10:26:44;23.10;48.70
51613;DHT22;37694;51.748;14.326;2023-06-26T10:29:12;23.00;48.40
51613;DHT22;37694;51.748;14.326;2023-06-26T10:31:42;23.00;48.00
51613;DHT22;37694;51.748;14.326;2023-06-26T10:34:11;23.00;47.80
51613;DHT22;37694;51.748;14.326;2023-06-26T10:36:37;23.00;48.00
51613;DHT22;37694;51.748;14.326;2023-06-26T10:39:06;23.00;47.70
51613;DHT22;37694;51.748;14.326;2023-06-26T10:41:40;22.90;47.40
51613;DHT22;37694;51.748;14.326;2023-06-26T10:44:10;22.90;47.40
51613;DHT22;37694;51.748;14.326;2023-06-26T10:46:52;22.80;47.50
51613;DHT22;37694;51.748;14.326;2023-06-26T10:49:19;22.80;47.10
51613;DHT22;37694;51.748;14.326;2023-06-26T10:51:49;22.80;47.10
51613;DHT22;37694;51.748;14.326;2023-06-26T10:54:16;22.80;47.00
51613;DHT22;37694;51.748;14.326;2023-06-26T10:56:46;22.70;46.90
51613;DHT22;37694;51.748;14.326;2023-06-26T10:59:22;22.70;46.80
51613;DHT22;37694;51.748;14.326;2023-06-26T11:02:04;22.70;46.90
51613;DHT22;37694;51.748;14.326;2023-06-26T11:04:46;22.60;46.50
51613;DHT22;37694;51.748;14.326;2023-06-26T11:07:25;22.60;46.70
51613;DHT22;37694;51.748;14.326;2023-06-26T11:10:00;22.50;46.80
51613;DHT22;37694;51.748;14.326;2023-06-26T11:15:03;22.50;46.70
51613;DHT22;37694;51.748;14.326;2023-06-26T11:17:31;22.40;46.80
51613;DHT22;37694;51.748;14.326;2023-06-26T11:19:57;22.40;46.70
51613;DHT22;37694;51.748;14.326;2023-06-26T11:22:23;22.30;46.80
51613;DHT22;37694;51.748;14.326;2023-06-26T11:24:53;22.40;46.90
51613;DHT22;37694;51.748;14.326;2023-06-26T11:27:19;22.30;46.70
51613;DHT22;37694;51.748;14.326;2023-06-26T11:29:48;22.30;46.60
51613;DHT22;37694;51.748;14.326;2023-06-26T11:32:16;22.20;46.40
51613;DHT22;37694;51.748;14.326;2023-06-26T11:34:42;22.20;46.70
51613;DHT22;37694;51.748;14.326;2023-06-26T11:37:08;22.20;46.70
51613;DHT22;37694;51.748;14.326;2023-06-26T11:39:34;22.20;46.70
51613;DHT22;37694;51.748;14.326;2023-06-26T11:42:00;22.20;46.50
51613;DHT22;37694;51.748;14.326;2023-06-26T11:44:30;22.10;46.60
51613;DHT22;37694;51.748;14.326;2023-06-26T11:46:57;22.10;46.70
51613;DHT22;37694;51.748;14.326;2023-06-26T11:49:23;22.10;46.60
51613;DHT22;37694;51.748;14.326;2023-06-26T11:51:51;22.00;46.70
51613;DHT22;37694;51.748;14.326;2023-06-26T11:54:24;22.00;46.50
51613;DHT22;37694;51.748;14.326;2023-06-26T11:56:58;22.00;46.50
51613;DHT22;37694;51.748;14.326;2023-06-26T11:59:32;22.00;46.60
51613;DHT22;37694;51.748;14.326;2023-06-26T12:01:58;21.90;46.80
51613;DHT22;37694;51.748;14.326;2023-06-26T12:04:24;21.90;46.70
51613;DHT22;37694;51.748;14.326;2023-06-26T12:06:51;21.90;46.80
51613;DHT22;37694;51.748;14.326;2023-06-26T12:09:21;21.80;46.70
51613;DHT22;37694;51.748;14.326;2023-06-26T12:11:49;21.80;46.60
51613;DHT22;37694;51.748;14.326;2023-06-26T12:14:17;21.80;46.80
51613;DHT22;37694;51.748;14.326;2023-06-26T12:16:44;21.80;46.80
51613;DHT22;37694;51.748;14.326;2023-06-26T12:19:10;21.80;46.80
51613;DHT22;37694;51.748;14.326;2023-06-26T12:24:12;21.80;46.50
51613;DHT22;37694;51.748;14.326;2023-06-26T12:26:40;21.70;46.60
51613;DHT22;37694;51.748;14.326;2023-06-26T12:29:08;21.70;46.80
51613;DHT22;37694;51.748;14.326;2023-06-26T12:31:34;21.70;46.80
51613;DHT22;37694;51.748;14.326;2023-06-26T12:34:00;21.60;46.70
51613;DHT22;37694;51.748;14.326;2023-06-26T12:36:26;21.60;46.70
51613;DHT22;37694;51.748;14.326;2023-06-26T12:38:55;21.60;46.70
51613;DHT22;37694;51.748;14.326;2023-06-26T12:41:24;21.60;46.70
51613;DHT22;37694;51.748;14.326;2023-06-26T12:43:49;21.60;46.70
51613;DHT22;37694;51.748;14.326;2023-06-26T12:46:20;21.60;46.70
51613;DHT22;37694;51.748;14.326;2023-06-26T12:48:58;21.50;46.80
51613;DHT22;37694;51.748;14.326;2023-06-26T12:51:23;21.50;46.80
51613;DHT22;37694;51.748;14.326;2023-06-26T12:53:52;21.50;46.80
51613;DHT22;37694;51.748;14.326;2023-06-26T12:56:17;21.50;46.70
51613;DHT22;37694;51.748;14.326;2023-06-26T12:58:43;21.50;46.90
51613;DHT22;37694;51.748;14.326;2023-06-26T13:01:09;21.50;46.80
51613;DHT22;37694;51.748;14.326;2023-06-26T13:03:40;21.50;46.80
51613;DHT22;37694;51.748;14.326;2023-06-26T13:06:06;21.50;46.90
51613;DHT22;37694;51.748;14.326;2023-06-26T13:08:33;21.50;46.80
51613;DHT22;37694;51.748;14.326;2023-06-26T13:10:59;21.40;46.90
51613;DHT22;37694;51.748;14.326;2023-06-26T13:13:25;21.40;46.90
51613;DHT22;37694;51.748;14.326;2023-06-26T13:15:51;21.40;46.80
51613;DHT22;37694;51.748;14.326;2023-06-26T13:18:17;21.40;46.90
51613;DHT22;37694;51.748;14.326;2023-06-26T13:20:42;21.40;47.10
51613;DHT22;37694;51.748;14.326;2023-06-26T13:23:08;21.30;46.80
51613;DHT22;37694;51.748;14.326;2023-06-26T13:25:34;21.30;47.00
51613;DHT22;37694;51.748;14.326;2023-06-26T13:28:00;21.30;47.00
51613;DHT22;37694;51.748;14.326;2023-06-26T13:30:25;21.30;47.00
51613;DHT22;37694;51.748;14.326;2023-06-26T13:32:51;21.30;46.90
51613;DHT22;37694;51.748;14.326;2023-06-26T13:35:17;21.30;47.10
51613;DHT22;37694;51.748;14.326;2023-06-26T13:37:43;21.30;47.10
51613;DHT22;37694;51.748;14.326;2023-06-26T13:40:09;21.30;47.00
51613;DHT22;37694;51.748;14.326;2023-06-26T13:42:35;21.30;47.00
51613;DHT22;37694;51.748;14.326;2023-06-26T13:45:02;21.30;46.90
51613;DHT22;37694;51.748;14.326;2023-06-26T13:47:29;21.30;46.80
51613;DHT22;37694;51.748;14.326;2023-06-26T13:49:54;21.20;47.00
51613;DHT22;37694;51.748;14.326;2023-06-26T13:52:20;21.30;47.00
51613;DHT22;37694;51.748;14.326;2023-06-26T13:54:46;21.30;46.90
51613;DHT22;37694;51.748;14.326;2023-06-26T13:57:11;21.20;47.10
51613;DHT22;37694;51.748;14.326;2023-06-26T13:59:38;21.20;47.30
51613;DHT22;37694;51.748;14.326;2023-06-26T14:02:08;21.20;47.50
51613;DHT22;37694;51.748;14.326;2023-06-26T14:04:33;21.20;51.00
51613;DHT22;37694;51.748;14.326;2023-06-26T14:06:59;21.40;54.10
51613;DHT22;37694;51.748;14.326;2023-06-26T14:09:25;21.70;55.50
51613;DHT22;37694;51.748;14.326;2023-06-26T14:11:51;21.90;54.90
51613;DHT22;37694;51.748;14.326;2023-06-26T14:14:16;22.10;54.10
51613;DHT22;37694;51.748;14.326;2023-06-26T14:16:42;22.20;53.80
51613;DHT22;37694;51.748;14.326;2023-06-26T14:19:08;22.30;53.70
51613;DHT22;37694;51.748;14.326;2023-06-26T14:21:41;22.40;53.70
51613;DHT22;37694;51.748;14.326;2023-06-26T14:24:07;22.40;53.20
51613;DHT22;37694;51.748;14.326;2023-06-26T14:26:32;22.40;52.60
51613;DHT22;37694;51.748;14.326;2023-06-26T14:28:59;22.40;52.00
51613;DHT22;37694;51.748;14.326;2023-06-26T14:31:25;22.50;51.60
51613;DHT22;37694;51.748;14.326;2023-06-26T14:33:51;22.50;51.30
51613;DHT22;37694;51.748;14.326;2023-06-26T14:36:17;22.50;51.70
51613;DHT22;37694;51.748;14.326;2023-06-26T14:38:42;22.50;52.10
51613;DHT22;37694;51.748;14.326;2023-06-26T14:41:08;22.50;51.50
51613;DHT22;37694;51.748;14.326;2023-06-26T14:43:34;22.60;51.10
51613;DHT22;37694;51.748;14.326;2023-06-26T14:45:59;22.60;51.20
51613;DHT22;37694;51.748;14.326;2023-06-26T14:48:25;22.60;50.80
51613;DHT22;37694;51.748;14.326;2023-06-26T14:50:50;22.60;50.30
51613;DHT22;37694;51.748;14.326;2023-06-26T14:53:17;22.60;49.90
51613;DHT22;37694;51.748;14.326;2023-06-26T14:55:42;22.70;50.90
51613;DHT22;37694;51.748;14.326;2023-06-26T14:58:08;22.70;51.60
51613;DHT22;37694;51.748;14.326;2023-06-26T15:00:34;22.70;51.40
51613;DHT22;37694;51.748;14.326;2023-06-26T15:03:00;22.70;50.80
51613;DHT22;37694;51.748;14.326;2023-06-26T15:05:26;22.70;50.00
51613;DHT22;37694;51.748;14.326;2023-06-26T15:07:52;22.70;49.70
51613;DHT22;37694;51.748;14.326;2023-06-26T15:10:18;22.70;49.10
51613;DHT22;37694;51.748;14.326;2023-06-26T15:12:43;22.60;48.80
51613;DHT22;37694;51.748;14.326;2023-06-26T15:15:09;22.60;48.80
51613;DHT22;37694;51.748;14.326;2023-06-26T15:17:35;22.60;49.90
51613;DHT22;37694;51.748;14.326;2023-06-26T15:20:01;22.70;50.60
51613;DHT22;37694;51.748;14.326;2023-06-26T15:22:27;22.70;50.10
51613;DHT22;37694;51.748;14.326;2023-06-26T15:24:53;22.70;50.00